Time;durP1;ratioP1;P1;durP2;ratioP2;P2;SDS_P1;SDS_P2;PMS_P1;PMS_P2;Temp;Humidity;BMP_temperature;BMP_pressure;BME280_temperature;BME280_humidity;BME280_pressure;Samples;Min_cycle;Max_cycle;Signal;HPM_P1;HPM_P2
2024/01/13 00:00:05;;;;;;;0.00;0.00;;;5.50;99.90;;;;;;5055273;28;20458;-73
2024/01/13 00:02:31;;;;;;;0.75;0.55;;;5.50;99.90;;;;;;5054929;28;20393;-73
2024/01/13 00:04:56;;;;;;;0.10;0.10;;;5.40;99.90;;;;;;5055169;28;20025;-73
2024/01/13 00:07:22;;;;;;;0.10;0.10;;;5.30;99.90;;;;;;5040869;28;20021;-73
2024/01/13 00:09:48;;;;;;;2.30;1.17;;;5.50;99.90;;;;;;5054985;28;20064;-73
2024/01/13 00:12:14;;;;;;;0.10;0.10;;;5.30;99.90;;;;;;5055177;28;20067;-73
2024/01/13 00:14:39;;;;;;;0.08;0.08;;;5.40;99.90;;;;;;5053714;28;20033;-73
2024/01/13 00:17:05;;;;;;;0.60;0.60;;;5.30;99.90;;;;;;5036689;28;20079;-73
2024/01/13 00:19:32;;;;;;;0.25;0.25;;;5.20;99.90;;;;;;5053836;28;20416;-73
2024/01/13 00:21:58;;;;;;;0.73;0.73;;;5.30;99.90;;;;;;5036833;28;20048;-74
2024/01/13 00:24:24;;;;;;;0.10;0.10;;;5.30;99.90;;;;;;5037003;28;20398;-73
2024/01/13 00:26:50;;;;;;;0.13;0.13;;;5.30;99.90;;;;;;5054807;28;20036;-73
2024/01/13 00:29:15;;;;;;;3.00;1.48;;;5.40;99.90;;;;;;5054533;28;20132;-73
2024/01/13 00:31:42;;;;;;;0.10;0.10;;;5.30;99.90;;;;;;5054194;28;20033;-73
2024/01/13 00:34:08;;;;;;;0.47;0.47;;;5.40;99.90;;;;;;5054769;28;20028;-73
2024/01/13 00:36:34;;;;;;;0.60;0.60;;;5.50;99.90;;;;;;5054591;28;20074;-73
2024/01/13 00:39:00;;;;;;;4.57;1.38;;;5.60;99.90;;;;;;5054472;28;20036;-73
2024/01/13 00:41:26;;;;;;;0.10;0.10;;;5.40;99.90;;;;;;5054319;28;20025;-74
2024/01/13 00:43:52;;;;;;;1.25;1.15;;;5.40;99.90;;;;;;5054417;28;20385;-73
2024/01/13 00:46:18;;;;;;;0.10;0.10;;;5.30;99.90;;;;;;5054487;28;20033;-73
2024/01/13 00:48:44;;;;;;;0.20;0.20;;;5.40;99.90;;;;;;5054148;28;20025;-73
2024/01/13 00:51:11;;;;;;;1.20;1.20;;;5.80;99.90;;;;;;5054181;28;20032;-73
2024/01/13 00:53:37;;;;;;;0.03;0.03;;;5.50;99.90;;;;;;5054137;28;20040;-73
2024/01/13 00:56:04;;;;;;;0.10;0.10;;;5.50;99.90;;;;;;5054226;28;20533;-74
2024/01/13 00:58:29;;;;;;;1.05;1.05;;;5.50;99.90;;;;;;5053900;28;20516;-74
2024/01/13 01:00:59;;;;;;;0.10;0.10;;;5.40;99.90;;;;;;5053833;28;20025;-74
2024/01/13 01:03:26;;;;;;;0.32;0.32;;;5.50;99.90;;;;;;5053843;28;20033;-74
2024/01/13 01:05:53;;;;;;;0.63;0.50;;;5.50;99.90;;;;;;5054121;28;20113;-73
2024/01/13 01:08:19;;;;;;;1.85;1.75;;;5.40;99.90;;;;;;5053682;28;20501;-73
2024/01/13 01:10:45;;;;;;;0.10;0.10;;;5.30;99.90;;;;;;5035878;28;20029;-73
2024/01/13 01:13:14;;;;;;;0.10;0.10;;;5.30;99.90;;;;;;5035742;28;20040;-73
2024/01/13 01:15:40;;;;;;;0.00;0.00;;;5.20;99.90;;;;;;5053463;28;20424;-74
2024/01/13 01:18:06;;;;;;;1.17;1.17;;;5.40;99.90;;;;;;5053761;28;20083;-74
2024/01/13 01:20:32;;;;;;;0.75;0.68;;;5.60;99.90;;;;;;5053636;28;20040;-74
2024/01/13 01:22:58;;;;;;;0.45;0.45;;;5.50;99.90;;;;;;5052268;28;20037;-74
2024/01/13 01:25:24;;;;;;;0.32;0.32;;;5.30;99.90;;;;;;5053512;28;20032;-73
2024/01/13 01:27:49;;;;;;;0.65;0.65;;;5.30;99.90;;;;;;5053486;28;20024;-73
2024/01/13 01:30:15;;;;;;;0.47;0.47;;;5.30;99.90;;;;;;5053050;28;20120;-74
2024/01/13 01:32:41;;;;;;;0.30;0.30;;;5.30;99.90;;;;;;5052248;28;20029;-74
2024/01/13 01:35:07;;;;;;;0.77;0.75;;;5.40;99.90;;;;;;5035780;28;20056;-74
2024/01/13 01:37:37;;;;;;;0.40;0.40;;;5.40;99.90;;;;;;5053504;28;20021;-74
2024/01/13 01:40:04;;;;;;;1.10;1.08;;;5.50;99.90;;;;;;5035401;28;20195;-73
2024/01/13 01:42:29;;;;;;;4.85;3.80;;;5.40;99.90;;;;;;5053254;28;20033;-73
2024/01/13 01:44:55;;;;;;;0.93;0.90;;;5.30;99.90;;;;;;5052762;28;20017;-73
2024/01/13 01:47:21;;;;;;;1.20;1.10;;;5.20;99.90;;;;;;5053361;28;20037;-74
2024/01/13 01:49:49;;;;;;;0.95;0.90;;;5.30;99.90;;;;;;5051700;28;20044;-74
2024/01/13 01:52:18;;;;;;;4.95;2.20;;;5.40;99.90;;;;;;5019753;28;20021;-74
2024/01/13 01:54:44;;;;;;;0.60;0.60;;;5.20;99.90;;;;;;5052965;28;20084;-73
2024/01/13 01:57:14;;;;;;;0.17;0.17;;;5.10;99.90;;;;;;5052910;28;20104;-74
2024/01/13 01:59:40;;;;;;;0.25;0.25;;;5.20;99.90;;;;;;5052803;28;20379;-74
2024/01/13 02:02:07;;;;;;;0.22;0.22;;;5.20;99.90;;;;;;5052759;28;20102;-74
2024/01/13 02:04:33;;;;;;;2.42;1.50;;;5.10;99.90;;;;;;5052954;28;20021;-73
2024/01/13 02:07:00;;;;;;;2.55;1.20;;;5.30;99.90;;;;;;5053147;28;20449;-73
2024/01/13 02:09:27;;;;;;;4.35;3.67;;;5.20;99.90;;;;;;5052587;28;20036;-73
2024/01/13 02:11:53;;;;;;;1.80;1.35;;;5.30;99.90;;;;;;5052580;28;20440;-74
2024/01/13 02:14:19;;;;;;;0.38;0.38;;;5.40;99.90;;;;;;5051234;28;20495;-73
2024/01/13 02:16:45;;;;;;;1.75;0.73;;;5.30;99.90;;;;;;5034864;28;20111;-73
2024/01/13 02:19:10;;;;;;;3.53;2.72;;;5.30;99.90;;;;;;5052631;28;20052;-74
2024/01/13 02:21:40;;;;;;;11.77;6.10;;;5.40;99.90;;;;;;5052812;28;20163;-73
2024/01/13 02:24:06;;;;;;;2.45;1.48;;;5.30;99.90;;;;;;5052709;28;20064;-73
2024/01/13 02:26:36;;;;;;;4.53;3.92;;;5.40;99.90;;;;;;5034592;28;20118;-74
2024/01/13 02:29:02;;;;;;;0.00;0.00;;;5.20;99.90;;;;;;5049480;28;20033;-74
2024/01/13 02:31:28;;;;;;;3.42;2.70;;;5.40;99.90;;;;;;5052454;28;20025;-74
2024/01/13 02:33:53;;;;;;;9.15;2.05;;;5.50;99.90;;;;;;5052459;28;20060;-73
2024/01/13 02:36:19;;;;;;;5.03;3.15;;;5.40;99.90;;;;;;5052223;28;20029;-73
2024/01/13 02:38:45;;;;;;;2.10;2.00;;;5.30;99.90;;;;;;5059267;28;20029;-73
2024/01/13 02:41:11;;;;;;;0.52;0.52;;;5.20;99.90;;;;;;5040864;28;20082;-73
2024/01/13 02:43:37;;;;;;;0.10;0.10;;;5.30;99.90;;;;;;5059195;28;20017;-74
2024/01/13 02:46:04;;;;;;;0.10;0.10;;;5.20;99.90;;;;;;5041101;28;20463;-73
2024/01/13 02:48:34;;;;;;;1.98;1.67;;;5.20;99.90;;;;;;5041163;28;20087;-73
2024/01/13 02:51:05;;;;;;;2.90;2.20;;;5.10;99.90;;;;;;5059098;28;20020;-73
2024/01/13 02:53:31;;;;;;;0.15;0.15;;;5.20;99.90;;;;;;5059011;28;20033;-73
2024/01/13 02:55:57;;;;;;;1.33;1.15;;;5.30;99.90;;;;;;5058772;28;20025;-73
2024/01/13 02:58:23;;;;;;;0.20;0.20;;;5.30;99.90;;;;;;5058939;28;20017;-73
2024/01/13 03:00:48;;;;;;;5.40;3.50;;;5.20;99.90;;;;;;5058893;28;20499;-73
2024/01/13 03:03:15;;;;;;;4.03;2.08;;;5.10;99.90;;;;;;5057602;28;20108;-73
2024/01/13 03:05:41;;;;;;;1.55;1.45;;;5.20;99.90;;;;;;5041125;28;20036;-73
2024/01/13 03:08:07;;;;;;;0.52;0.28;;;5.10;99.90;;;;;;5058793;28;20060;-73
2024/01/13 03:10:33;;;;;;;1.17;1.08;;;5.10;99.90;;;;;;5058235;28;20512;-73
2024/01/13 03:12:59;;;;;;;1.38;1.17;;;5.00;99.90;;;;;;5058502;28;20029;-73
2024/01/13 03:15:25;;;;;;;0.50;0.47;;;5.10;99.90;;;;;;5058597;28;20036;-73
2024/01/13 03:17:52;;;;;;;0.65;0.63;;;5.20;99.90;;;;;;5058849;28;20033;-73
2024/01/13 03:20:18;;;;;;;0.80;0.52;;;5.10;99.90;;;;;;5058625;28;20025;-73
2024/01/13 03:22:45;;;;;;;0.55;0.50;;;5.20;99.90;;;;;;5058705;28;20462;-73
2024/01/13 03:25:11;;;;;;;4.43;2.63;;;5.30;99.90;;;;;;5058801;28;20385;-73
2024/01/13 03:27:37;;;;;;;5.70;3.50;;;5.20;99.90;;;;;;5058583;28;20021;-73
2024/01/13 03:30:03;;;;;;;0.55;0.55;;;5.20;99.90;;;;;;5058783;28;20044;-73
2024/01/13 03:32:29;;;;;;;8.68;3.42;;;5.10;99.90;;;;;;5058507;28;20087;-73
2024/01/13 03:34:55;;;;;;;0.60;0.60;;;5.10;99.90;;;;;;5058658;28;20024;-73
2024/01/13 03:37:20;;;;;;;0.20;0.20;;;5.10;99.90;;;;;;5058477;28;20474;-73
2024/01/13 03:39:46;;;;;;;1.90;1.55;;;5.30;99.90;;;;;;5058469;28;20496;-73
2024/01/13 03:42:12;;;;;;;4.07;2.65;;;5.30;99.90;;;;;;5058609;28;20112;-73
2024/01/13 03:44:38;;;;;;;2.08;1.77;;;5.20;99.90;;;;;;5040452;28;20559;-73
2024/01/13 03:47:04;;;;;;;7.88;2.67;;;5.20;99.90;;;;;;5057216;28;20087;-73
2024/01/13 03:49:30;;;;;;;2.33;1.65;;;5.20;99.90;;;;;;5055589;28;20045;-73
2024/01/13 03:51:56;;;;;;;3.95;2.20;;;5.20;99.90;;;;;;5037549;28;20021;-73
2024/01/13 03:54:23;;;;;;;2.45;2.03;;;5.30;99.90;;;;;;5037231;28;20073;-73
2024/01/13 03:56:49;;;;;;;1.00;0.90;;;5.30;99.90;;;;;;5055225;28;20029;-73
2024/01/13 03:59:15;;;;;;;2.17;1.85;;;5.30;99.90;;;;;;5037640;28;20029;-73
2024/01/13 04:01:41;;;;;;;3.13;2.63;;;5.40;99.90;;;;;;5055413;28;20024;-73
2024/01/13 04:04:07;;;;;;;0.13;0.13;;;5.30;99.90;;;;;;5055187;28;20044;-73
2024/01/13 04:06:39;;;;;;;3.20;0.93;;;5.20;99.90;;;;;;5055007;28;20465;-73
2024/01/13 04:09:05;;;;;;;0.80;0.77;;;5.20;99.90;;;;;;5054849;28;20068;-73
2024/01/13 04:11:31;;;;;;;0.98;0.88;;;5.30;99.90;;;;;;5055014;28;20554;-73
2024/01/13 04:13:56;;;;;;;7.95;1.30;;;5.40;99.90;;;;;;5054991;28;20029;-73
2024/01/13 04:16:23;;;;;;;1.95;0.68;;;5.30;99.90;;;;;;5054632;28;20036;-73
2024/01/13 04:18:49;;;;;;;4.25;2.17;;;5.30;99.90;;;;;;5054801;28;20051;-73
2024/01/13 04:21:15;;;;;;;1.27;1.25;;;5.30;99.90;;;;;;5054955;28;20025;-73
2024/01/13 04:23:41;;;;;;;3.53;2.05;;;5.30;99.90;;;;;;5054466;28;20025;-73
2024/01/13 04:26:07;;;;;;;9.32;8.45;;;5.20;99.90;;;;;;5054804;28;20575;-73
2024/01/13 04:28:34;;;;;;;1.65;1.08;;;5.30;99.90;;;;;;5054683;28;20532;-73
2024/01/13 04:31:00;;;;;;;1.25;1.15;;;5.20;99.90;;;;;;5054811;28;20103;-73
2024/01/13 04:33:26;;;;;;;0.10;0.10;;;5.20;99.90;;;;;;5054465;28;20512;-74
2024/01/13 04:35:51;;;;;;;0.95;0.93;;;5.20;99.90;;;;;;5054665;28;20037;-73
2024/01/13 04:38:18;;;;;;;1.83;1.60;;;5.30;99.90;;;;;;5054244;28;20056;-73
2024/01/13 04:40:47;;;;;;;0.25;0.25;;;5.30;99.90;;;;;;5036559;28;20087;-73
2024/01/13 04:43:13;;;;;;;0.30;0.30;;;5.20;99.90;;;;;;5054449;28;20021;-73
2024/01/13 04:45:39;;;;;;;1.15;0.88;;;5.10;99.90;;;;;;5054459;28;20028;-73
2024/01/13 04:48:06;;;;;;;0.88;0.88;;;5.10;99.90;;;;;;5054016;28;20440;-74
2024/01/13 04:50:31;;;;;;;0.17;0.08;;;5.30;99.90;;;;;;5054563;28;20029;-73
2024/01/13 04:52:57;;;;;;;1.23;0.68;;;5.30;99.90;;;;;;5053666;28;20051;-73
2024/01/13 04:55:23;;;;;;;1.42;1.33;;;5.20;99.90;;;;;;5054238;28;20086;-73
2024/01/13 04:57:49;;;;;;;0.85;0.47;;;5.20;99.90;;;;;;5053842;28;20094;-73
2024/01/13 05:00:16;;;;;;;4.30;3.10;;;5.10;99.90;;;;;;5053527;28;20029;-73
2024/01/13 05:02:42;;;;;;;2.10;1.90;;;5.10;99.90;;;;;;5054021;28;20041;-73
2024/01/13 05:05:08;;;;;;;0.50;0.50;;;5.10;99.90;;;;;;5053749;28;20092;-73
2024/01/13 05:07:36;;;;;;;2.83;1.48;;;5.10;99.90;;;;;;5053555;28;20059;-73
2024/01/13 05:10:04;;;;;;;0.15;0.15;;;5.10;99.90;;;;;;5035542;28;20025;-73
2024/01/13 05:12:30;;;;;;;5.40;1.08;;;5.20;99.90;;;;;;5036119;28;20105;-73
2024/01/13 05:14:56;;;;;;;0.60;0.60;;;5.20;99.90;;;;;;5053499;28;20429;-73
2024/01/13 05:17:22;;;;;;;14.75;6.53;;;5.10;99.90;;;;;;5053681;28;20021;-73
2024/01/13 05:19:48;;;;;;;5.85;3.67;;;5.10;99.90;;;;;;5053544;28;20031;-74
2024/01/13 05:22:14;;;;;;;1.58;1.48;;;5.10;99.90;;;;;;5051890;28;20033;-74
2024/01/13 05:24:42;;;;;;;6.30;2.90;;;5.10;99.90;;;;;;5053563;28;20082;-74
2024/01/13 05:27:08;;;;;;;1.73;1.48;;;5.10;99.90;;;;;;5035509;28;20024;-74
2024/01/13 05:29:34;;;;;;;2.95;2.70;;;5.10;99.90;;;;;;5053323;28;20041;-74
2024/01/13 05:32:01;;;;;;;4.70;2.55;;;5.10;99.90;;;;;;5053415;28;20036;-73
2024/01/13 05:34:27;;;;;;;1.60;1.48;;;5.20;99.90;;;;;;5053322;28;20584;-72
2024/01/13 05:36:53;;;;;;;9.77;2.05;;;5.20;99.90;;;;;;5053220;28;20112;-73
2024/01/13 05:39:18;;;;;;;3.40;1.88;;;5.20;99.90;;;;;;5053347;28;20028;-73
2024/01/13 05:41:44;;;;;;;1.23;1.13;;;5.20;99.90;;;;;;5053429;28;20020;-73
2024/01/13 05:44:11;;;;;;;3.90;2.28;;;5.20;99.90;;;;;;5052887;28;20501;-73
2024/01/13 05:46:37;;;;;;;2.60;1.45;;;5.10;99.90;;;;;;5053710;28;20014;-73
2024/01/13 05:49:03;;;;;;;1.77;1.67;;;5.10;99.90;;;;;;5053086;28;20528;-73
2024/01/13 05:51:29;;;;;;;2.70;1.60;;;5.10;99.90;;;;;;5035260;28;20492;-73
2024/01/13 05:53:55;;;;;;;6.75;2.17;;;5.20;99.90;;;;;;5053135;28;20060;-73
2024/01/13 05:56:21;;;;;;;4.65;2.78;;;5.10;99.90;;;;;;5053010;28;20390;-73
2024/01/13 05:58:47;;;;;;;3.22;2.60;;;5.20;99.90;;;;;;5051504;28;20025;-73
2024/01/13 06:01:12;;;;;;;2.78;2.58;;;5.10;99.90;;;;;;5052617;28;20412;-73
2024/01/13 06:03:38;;;;;;;4.15;3.25;;;5.10;99.90;;;;;;5035002;28;20359;-73
2024/01/13 06:06:07;;;;;;;11.25;6.57;;;5.10;99.90;;;;;;5052697;28;20117;-73
2024/01/13 06:08:33;;;;;;;4.65;3.22;;;5.10;99.90;;;;;;5052557;28;20032;-73
2024/01/13 06:11:01;;;;;;;0.75;0.55;;;5.10;99.90;;;;;;5052249;28;20037;-73
2024/01/13 06:13:27;;;;;;;1.95;1.60;;;5.10;99.90;;;;;;5052519;28;20067;-73
2024/01/13 06:15:53;;;;;;;1.73;1.63;;;5.10;99.90;;;;;;5034774;28;20037;-73
2024/01/13 06:18:18;;;;;;;2.15;2.03;;;5.10;99.90;;;;;;5052315;28;20079;-73
2024/01/13 06:20:44;;;;;;;1.52;1.42;;;5.00;99.90;;;;;;5052768;28;20489;-73
2024/01/13 06:23:10;;;;;;;0.50;0.50;;;5.00;99.90;;;;;;5052764;28;20031;-73
2024/01/13 06:25:36;;;;;;;1.10;1.00;;;5.10;99.90;;;;;;5052617;28;20374;-73
2024/01/13 06:28:02;;;;;;;0.30;0.30;;;5.10;99.90;;;;;;5034897;28;20188;-73
2024/01/13 06:30:27;;;;;;;2.28;2.08;;;5.10;99.90;;;;;;5052630;28;20548;-73
2024/01/13 06:32:53;;;;;;;0.98;0.30;;;5.10;99.90;;;;;;5052436;28;20033;-74
2024/01/13 06:35:19;;;;;;;3.85;3.30;;;5.20;99.90;;;;;;5034512;28;20119;-73
2024/01/13 06:37:45;;;;;;;4.05;3.28;;;5.00;99.90;;;;;;5051287;28;20025;-73
2024/01/13 06:40:12;;;;;;;5.10;1.42;;;5.10;99.90;;;;;;5052535;28;20033;-73
2024/01/13 06:42:37;;;;;;;3.55;2.55;;;5.20;99.90;;;;;;5034700;28;20029;-74
2024/01/13 06:45:04;;;;;;;0.30;0.30;;;5.20;99.90;;;;;;5052175;28;20401;-73
2024/01/13 06:47:30;;;;;;;5.07;3.95;;;5.30;99.90;;;;;;5034432;28;20045;-74
2024/01/13 06:49:59;;;;;;;0.30;0.30;;;5.10;99.90;;;;;;5038318;28;20041;-73
2024/01/13 06:52:25;;;;;;;1.27;1.17;;;5.10;99.90;;;;;;5052639;28;20136;-74
2024/01/13 06:54:50;;;;;;;0.22;0.22;;;5.10;99.90;;;;;;5052163;28;20108;-74
2024/01/13 06:57:17;;;;;;;2.97;2.20;;;5.10;99.90;;;;;;5052171;28;20055;-74
2024/01/13 06:59:45;;;;;;;0.77;0.73;;;5.10;99.90;;;;;;5034952;28;20475;-74
2024/01/13 07:02:11;;;;;;;0.10;0.10;;;5.20;99.90;;;;;;5051934;28;20017;-74
2024/01/13 07:04:38;;;;;;;2.22;2.05;;;5.20;99.90;;;;;;5052305;28;20033;-74
2024/01/13 07:07:08;;;;;;;7.90;3.50;;;5.10;99.90;;;;;;5051967;28;20090;-74
2024/01/13 07:09:33;;;;;;;1.00;0.57;;;5.10;99.90;;;;;;5034549;28;20045;-74
2024/01/13 07:12:00;;;;;;;6.30;4.30;;;5.20;99.90;;;;;;5052213;28;20044;-74
2024/01/13 07:14:26;;;;;;;0.00;0.00;;;5.10;99.90;;;;;;5052117;28;20056;-74
2024/01/13 07:16:52;;;;;;;8.43;4.20;;;5.20;99.90;;;;;;5033990;28;20068;-74
2024/01/13 07:19:18;;;;;;;4.78;2.88;;;5.10;99.90;;;;;;5052230;28;20025;-74
2024/01/13 07:21:45;;;;;;;5.28;2.53;;;5.10;99.90;;;;;;5051884;28;20029;-74
2024/01/13 07:24:14;;;;;;;1.48;1.33;;;5.00;99.90;;;;;;5055127;28;20064;-73
2024/01/13 07:26:40;;;;;;;2.38;2.13;;;5.10;99.90;;;;;;5055757;28;20056;-73
2024/01/13 07:29:06;;;;;;;0.43;0.43;;;5.00;99.90;;;;;;5055866;28;20474;-73
2024/01/13 07:31:32;;;;;;;5.32;3.58;;;5.00;99.90;;;;;;5055332;28;20037;-73
2024/01/13 07:33:58;;;;;;;4.20;3.13;;;5.00;99.90;;;;;;5055745;28;20033;-73
2024/01/13 07:36:25;;;;;;;3.88;3.25;;;5.00;99.90;;;;;;5055355;28;20518;-73
2024/01/13 07:38:50;;;;;;;0.28;0.28;;;4.90;99.90;;;;;;5055658;28;20017;-73
2024/01/13 07:41:16;;;;;;;6.22;4.25;;;5.00;99.90;;;;;;5055404;28;20048;-73
2024/01/13 07:43:44;;;;;;;18.30;1.88;;;4.90;99.90;;;;;;5055550;28;20178;-73
2024/01/13 07:46:12;;;;;;;3.58;1.65;;;5.00;99.90;;;;;;5037130;28;20096;-73
2024/01/13 07:48:39;;;;;;;3.20;1.23;;;5.00;99.90;;;;;;5037716;28;20458;-73
2024/01/13 07:51:08;;;;;;;1.17;1.10;;;5.10;99.90;;;;;;5054958;28;20032;-73
2024/01/13 07:53:34;;;;;;;5.05;2.40;;;5.30;99.90;;;;;;5055579;28;20017;-73
2024/01/13 07:56:00;;;;;;;3.95;2.50;;;5.00;99.90;;;;;;5054112;28;20040;-73
2024/01/13 07:58:26;;;;;;;1.98;1.67;;;4.90;99.90;;;;;;5054002;28;20551;-73
2024/01/13 08:00:52;;;;;;;0.75;0.50;;;4.90;99.90;;;;;;5055147;28;20029;-73
2024/01/13 08:03:18;;;;;;;1.60;1.13;;;5.00;99.90;;;;;;5054953;28;20501;-74
2024/01/13 08:05:44;;;;;;;1.30;1.25;;;5.00;99.90;;;;;;5037015;28;20033;-73
2024/01/13 08:08:10;;;;;;;1.67;1.00;;;5.00;99.90;;;;;;5054363;28;20113;-73
2024/01/13 08:10:38;;;;;;;1.67;1.13;;;5.10;99.90;;;;;;5036707;28;20107;-73
2024/01/13 08:13:07;;;;;;;0.10;0.10;;;5.10;99.90;;;;;;5036253;28;20051;-73
2024/01/13 08:15:33;;;;;;;4.13;1.52;;;5.20;99.90;;;;;;5041167;28;20024;-73
2024/01/13 08:17:59;;;;;;;2.83;0.98;;;5.20;99.90;;;;;;5054741;28;20148;-73
2024/01/13 08:20:28;;;;;;;2.83;1.17;;;5.10;99.90;;;;;;5054824;28;20032;-73
2024/01/13 08:22:55;;;;;;;3.97;2.30;;;5.10;99.90;;;;;;5054384;28;20029;-73
2024/01/13 08:25:20;;;;;;;2.50;1.95;;;5.20;99.90;;;;;;5054773;28;20032;-73
2024/01/13 08:27:46;;;;;;;9.45;2.95;;;5.30;99.90;;;;;;5054748;28;20025;-73
2024/01/13 08:30:12;;;;;;;3.00;2.35;;;5.00;99.90;;;;;;5054326;28;20029;-73
2024/01/13 08:32:39;;;;;;;3.17;1.75;;;4.90;99.90;;;;;;5054654;28;20071;-73
2024/01/13 08:35:07;;;;;;;1.15;1.13;;;4.90;99.90;;;;;;5053687;28;20389;-73
2024/01/13 08:37:33;;;;;;;0.88;0.80;;;4.90;99.90;;;;;;5054503;28;20021;-73
2024/01/13 08:39:58;;;;;;;4.25;1.88;;;5.00;99.90;;;;;;5054657;28;20040;-73
2024/01/13 08:42:24;;;;;;;4.00;3.60;;;4.90;99.90;;;;;;5054429;28;20017;-73
2024/01/13 08:44:50;;;;;;;3.08;1.63;;;4.90;99.90;;;;;;5036365;28;20029;-73
2024/01/13 08:47:16;;;;;;;5.18;2.53;;;5.00;99.90;;;;;;5054291;28;20036;-73
2024/01/13 08:49:41;;;;;;;1.25;0.82;;;4.90;99.90;;;;;;5036257;28;20033;-73
2024/01/13 08:52:09;;;;;;;1.30;1.17;;;4.90;99.90;;;;;;5054344;28;20032;-73
2024/01/13 08:54:36;;;;;;;2.55;1.65;;;4.80;99.90;;;;;;5054399;28;20035;-73
2024/01/13 08:57:05;;;;;;;13.93;4.97;;;4.90;99.90;;;;;;5036112;28;20021;-73
2024/01/13 08:59:33;;;;;;;1.13;1.02;;;4.80;99.90;;;;;;5035659;28;20064;-73
2024/01/13 09:02:00;;;;;;;10.25;4.90;;;4.70;99.90;;;;;;5053885;28;20040;-73
2024/01/13 09:04:25;;;;;;;6.45;3.95;;;4.80;99.90;;;;;;5054100;28;20037;-73
2024/01/13 09:06:51;;;;;;;5.82;2.92;;;4.80;99.90;;;;;;5035826;28;20025;-73
2024/01/13 09:09:17;;;;;;;4.47;1.48;;;4.80;99.90;;;;;;5035822;28;20081;-73
2024/01/13 09:11:44;;;;;;;9.55;3.53;;;4.80;99.90;;;;;;5019152;28;20021;-73
2024/01/13 09:14:11;;;;;;;5.18;2.95;;;4.70;99.90;;;;;;5035889;28;20116;-73
2024/01/13 09:16:37;;;;;;;11.38;4.80;;;4.70;99.90;;;;;;5053623;28;20032;-73
2024/01/13 09:19:02;;;;;;;5.78;3.33;;;4.70;99.90;;;;;;5053453;28;20033;-73
2024/01/13 09:21:28;;;;;;;3.22;2.92;;;4.70;99.90;;;;;;5053884;28;20017;-73
2024/01/13 09:23:54;;;;;;;1.65;0.30;;;4.70;99.90;;;;;;5035670;28;20032;-73
2024/01/13 09:26:20;;;;;;;2.33;1.90;;;4.80;99.90;;;;;;5035937;28;20021;-73
2024/01/13 09:28:46;;;;;;;1.75;1.17;;;4.80;99.90;;;;;;5051293;28;20044;-73
2024/01/13 09:31:11;;;;;;;3.53;2.05;;;4.80;99.90;;;;;;5035559;28;20035;-73
2024/01/13 09:33:37;;;;;;;6.75;3.70;;;4.80;99.90;;;;;;5053311;28;20029;-73
2024/01/13 09:36:04;;;;;;;2.28;1.23;;;4.70;99.90;;;;;;5052092;28;20083;-73
2024/01/13 09:38:29;;;;;;;0.30;0.30;;;4.70;99.90;;;;;;5053388;28;20487;-73
2024/01/13 09:40:55;;;;;;;4.88;1.92;;;4.70;99.90;;;;;;5053139;28;20076;-73
2024/01/13 09:43:37;;;;;;;10.60;4.95;;;4.70;99.90;;;;;;5053167;28;20014;-73
2024/01/13 09:46:03;;;;;;;;;;;4.80;99.90;;;;;;5053677;28;20454;-73
2024/01/13 09:48:29;;;;;;;9.98;3.83;;;4.70;99.90;;;;;;5053041;28;19916;-73
2024/01/13 09:50:57;;;;;;;2.58;1.85;;;4.80;99.90;;;;;;5052888;28;20031;-73
2024/01/13 09:53:31;;;;;;;1.95;1.77;;;4.70;99.90;;;;;;5053171;28;20024;-73
2024/01/13 09:56:03;;;;;;;5.82;2.00;;;4.80;99.90;;;;;;5035139;28;20060;-73
2024/01/13 09:58:29;;;;;;;4.97;2.53;;;4.80;99.90;;;;;;5053072;28;20422;-73
2024/01/13 10:00:56;;;;;;;0.20;0.20;;;4.80;99.90;;;;;;5052623;28;20025;-73
2024/01/13 10:03:22;;;;;;;0.70;0.70;;;4.90;99.90;;;;;;5053042;28;20033;-73
2024/01/13 10:05:50;;;;;;;2.10;1.90;;;4.90;99.90;;;;;;5052840;28;20366;-73
2024/01/13 10:08:26;;;;;;;2.55;2.03;;;4.80;99.90;;;;;;5034831;28;20056;-73
2024/01/13 10:10:52;;;;;;;4.45;2.92;;;4.80;99.90;;;;;;5052245;28;20091;-73
2024/01/13 10:13:21;;;;;;;2.63;2.47;;;4.80;99.90;;;;;;5052468;28;20024;-73
2024/01/13 10:15:47;;;;;;;9.88;5.47;;;4.80;99.90;;;;;;5052624;28;20090;-73
2024/01/13 10:18:13;;;;;;;2.00;1.13;;;4.80;99.90;;;;;;5052240;28;20029;-73
2024/01/13 10:20:39;;;;;;;2.13;1.73;;;4.70;99.90;;;;;;5052621;28;20112;-73
2024/01/13 10:23:05;;;;;;;2.33;2.13;;;4.70;99.90;;;;;;5034538;28;20033;-73
2024/01/13 10:25:31;;;;;;;1.52;1.40;;;4.80;99.90;;;;;;5052624;28;20099;-74
2024/01/13 10:27:57;;;;;;;2.53;1.67;;;4.90;99.90;;;;;;5051277;28;20036;-73
2024/01/13 10:30:23;;;;;;;6.25;2.45;;;5.00;99.90;;;;;;5052211;28;20033;-73
2024/01/13 10:32:49;;;;;;;2.10;1.25;;;5.00;99.90;;;;;;5052394;28;20074;-73
2024/01/13 10:35:17;;;;;;;0.68;0.68;;;4.80;99.90;;;;;;5034333;28;20025;-73
2024/01/13 10:37:43;;;;;;;6.32;3.63;;;4.80;99.90;;;;;;5034662;28;20025;-73
2024/01/13 10:40:09;;;;;;;2.10;1.80;;;4.90;99.90;;;;;;5051985;28;20401;-73
2024/01/13 10:42:37;;;;;;;10.93;3.65;;;4.80;99.90;;;;;;5052297;28;20028;-73
2024/01/13 10:45:14;;;;;;;0.28;0.28;;;4.80;99.90;;;;;;5052349;28;20473;-73
2024/01/13 10:47:49;;;;;;;2.25;2.08;;;4.90;99.90;;;;;;5034571;28;20150;-73
2024/01/13 10:50:15;;;;;;;1.30;0.73;;;5.00;99.90;;;;;;5052267;28;20047;-73
2024/01/13 10:52:54;;;;;;;9.23;4.13;;;5.00;99.90;;;;;;5034497;28;20029;-73
2024/01/13 10:55:22;;;;;;;2.75;1.90;;;4.90;99.90;;;;;;5050716;28;20120;-74
2024/01/13 10:57:48;;;;;;;12.57;3.97;;;5.10;99.90;;;;;;5035220;28;20029;-73
2024/01/13 11:00:14;;;;;;;11.50;5.95;;;5.00;99.90;;;;;;5038398;28;20025;-73
2024/01/13 11:02:42;;;;;;;1.95;1.67;;;4.80;99.90;;;;;;5056069;28;20074;-73
2024/01/13 11:05:10;;;;;;;4.13;1.95;;;4.80;99.90;;;;;;5055952;28;20358;-74
2024/01/13 11:07:37;;;;;;;0.82;0.82;;;4.80;99.90;;;;;;5056423;28;20037;-73
2024/01/13 11:10:09;;;;;;;8.48;3.72;;;4.90;99.90;;;;;;5055747;28;20029;-73
2024/01/13 11:12:46;;;;;;;1.45;1.35;;;4.90;99.90;;;;;;5056161;28;20116;-71
2024/01/13 11:15:39;;;;;;;11.27;5.93;;;4.80;99.90;;;;;;5055530;28;20424;-72
2024/01/13 11:18:05;;;;;;;2.90;2.55;;;4.90;99.90;;;;;;5047583;28;20107;-72
2024/01/13 11:21:03;;;;;;;14.93;8.65;;;4.90;99.90;;;;;;5055855;28;20037;-73
2024/01/13 11:23:52;;;;;;;6.00;3.70;;;4.90;99.90;;;;;;5050023;28;20134;-73
2024/01/13 11:26:27;;;;;;;2.35;1.10;;;4.80;99.90;;;;;;5029018;28;20397;-73
2024/01/13 11:28:55;;;;;;;1.65;1.30;;;4.90;99.90;;;;;;5055629;28;20385;-73
2024/01/13 11:31:40;;;;;;;2.65;2.15;;;4.80;99.90;;;;;;5055900;28;20355;-73
2024/01/13 11:34:12;;;;;;;4.35;2.10;;;4.70;99.90;;;;;;5055698;28;20021;-73
2024/01/13 11:36:45;;;;;;;0.10;0.10;;;4.80;99.90;;;;;;5037817;28;20025;-73
2024/01/13 11:39:11;;;;;;;12.80;3.33;;;5.00;99.90;;;;;;5055315;28;20063;-73
2024/01/13 11:41:45;;;;;;;2.78;2.10;;;4.90;99.90;;;;;;5055374;28;20055;-73
2024/01/13 11:44:17;;;;;;;7.25;3.35;;;4.90;99.90;;;;;;5037707;28;20044;-73
2024/01/13 11:47:01;;;;;;;5.88;4.13;;;4.80;99.90;;;;;;5037445;28;20029;-73
2024/01/13 11:49:35;;;;;;;6.20;4.35;;;4.80;99.90;;;;;;5055202;28;20394;-73
2024/01/13 11:52:06;;;;;;;6.45;3.33;;;4.80;99.90;;;;;;5054888;28;20029;-73
2024/01/13 11:54:36;;;;;;;5.90;4.30;;;4.70;99.90;;;;;;5055612;28;20068;-73
2024/01/13 11:57:09;;;;;;;7.93;4.75;;;4.70;99.90;;;;;;5055220;28;20419;-73
2024/01/13 11:59:35;;;;;;;9.30;5.95;;;4.70;99.90;;;;;;5055185;28;20025;-73
2024/01/13 12:02:02;;;;;;;5.25;3.10;;;4.80;99.90;;;;;;5037272;28;20017;-73
2024/01/13 12:04:29;;;;;;;7.32;3.47;;;4.70;99.90;;;;;;5037306;28;20075;-73
2024/01/13 12:06:56;;;;;;;9.57;4.15;;;4.70;99.90;;;;;;5036521;28;20017;-73
2024/01/13 12:09:23;;;;;;;11.85;4.32;;;4.70;99.90;;;;;;5035898;28;20471;-73
2024/01/13 12:11:56;;;;;;;15.57;7.95;;;4.70;99.90;;;;;;5037201;28;20025;-73
2024/01/13 12:14:26;;;;;;;7.22;2.60;;;4.70;99.90;;;;;;5037079;28;20385;-73
2024/01/13 12:16:53;;;;;;;3.85;2.42;;;4.60;99.90;;;;;;5036710;28;20389;-73
2024/01/13 12:19:25;;;;;;;10.82;5.43;;;4.60;99.90;;;;;;5054911;28;20515;-73
2024/01/13 12:21:51;;;;;;;7.07;4.47;;;4.60;99.90;;;;;;5036935;28;22022;-73
2024/01/13 12:24:27;;;;;;;9.70;6.53;;;4.70;99.90;;;;;;5054875;28;20491;-73
2024/01/13 12:26:53;;;;;;;3.83;1.25;;;4.70;99.90;;;;;;5054449;28;20036;-73
2024/01/13 12:29:21;;;;;;;9.45;5.60;;;4.80;99.90;;;;;;5036925;28;20060;-73
2024/01/13 12:31:48;;;;;;;2.53;2.13;;;4.70;99.90;;;;;;5054636;28;20029;-73
2024/01/13 12:34:15;;;;;;;7.32;4.72;;;4.70;99.90;;;;;;5036746;28;20036;-73
2024/01/13 12:36:41;;;;;;;2.92;2.42;;;4.60;99.90;;;;;;5036346;28;20052;-73
2024/01/13 12:39:08;;;;;;;12.27;5.07;;;4.70;99.90;;;;;;5036530;28;20029;-73
2024/01/13 12:41:34;;;;;;;7.07;4.22;;;4.70;99.90;;;;;;5054551;28;20021;-73
2024/01/13 12:44:01;;;;;;;4.63;4.05;;;4.60;99.90;;;;;;5036629;28;20083;-73
2024/01/13 12:46:28;;;;;;;2.10;2.00;;;4.60;99.90;;;;;;5036472;28;20024;-73
2024/01/13 12:48:54;;;;;;;3.20;1.95;;;4.60;99.90;;;;;;5054285;28;20040;-73
2024/01/13 12:51:20;;;;;;;2.38;2.17;;;4.70;99.90;;;;;;5053980;28;20016;-73
2024/01/13 12:53:47;;;;;;;1.52;1.17;;;4.70;99.90;;;;;;5054336;28;20472;-73
2024/01/13 12:56:15;;;;;;;1.52;1.25;;;4.60;99.90;;;;;;5053653;28;20162;-73